CheckWX is a tool to help pilots better visualize weather data.  It is not intended as a substitute for an official pre-flight weather briefing.

13:23:04 UTC

KATT METAR
Austin City Airport
Austin, Texas, USA
Current

18 mins ago

KATT 211305Z AUTO 13006KT 10SM OVC008 26/23 A3006 RMK AO2 CIG 007V013 T02610233
Observed
Sep-21 @ 13:05 UTC
Wind
  • 130° at 6 KTS
Visibility
10 SM
Flight Rules
IFR
Cloud Levels
  • Overcast at 800' AGL
Temperature
26°C / 79°F
Dewpoint
23°C / 73°F
Humidity
84%
Altimeter
30.06" Hg
Pressure
1017.92 hPa
Previous

32 mins ago

KATT 211251Z AUTO 13007G16KT 100V160 10SM OVC010 26/23 A3006 RMK AO2 CIG 008V013 SLP163 T02610233
Observed
Sep-21 @ 12:51 UTC
Wind
  • 130° at 7 KTS
  • Gusting to 16 KTS
Visibility
10 SM
Flight Rules
MVFR
Cloud Levels
  • Overcast at 1,000' AGL
Temperature
26°C / 79°F
Dewpoint
23°C / 73°F
Humidity
84%
Altimeter
30.06" Hg
Pressure
1017.92 hPa
Previous

2 hours ago

KATT 211151Z AUTO 14006KT 10SM BKN013 OVC019 26/23 A3005 RMK AO2 SLP161 T02610233 10272 20261 53008
Observed
Sep-21 @ 11:51 UTC
Wind
  • 140° at 6 KTS
Visibility
10 SM
Flight Rules
MVFR
Cloud Levels
  • Broken at 1,300' AGL
  • Overcast at 1,900' AGL
Temperature
26°C / 79°F
Dewpoint
23°C / 73°F
Humidity
84%
Altimeter
30.05" Hg
Pressure
1017.62 hPa